createdAt,value
2017-10-23T00:01:12.106Z,84.14
2017-10-23T00:03:40.418Z,84.05
2017-10-23T00:06:08.726Z,83.50
2017-10-23T00:08:37.058Z,83.94
2017-10-23T00:11:06.140Z,84.45
2017-10-23T00:13:35.229Z,84.52
2017-10-23T00:16:03.551Z,84.97
2017-10-23T00:18:31.862Z,85.41
2017-10-23T00:21:00.161Z,85.62
2017-10-23T00:23:28.485Z,86.11
2017-10-23T00:25:56.790Z,86.49
2017-10-23T00:28:25.101Z,86.95
2017-10-23T00:30:54.160Z,87.49
2017-10-23T00:33:22.468Z,87.66
2017-10-23T00:35:50.765Z,87.85
2017-10-23T00:38:19.073Z,87.88
2017-10-23T00:40:47.381Z,88.17
2017-10-23T00:43:15.710Z,88.44
2017-10-23T00:45:44.017Z,88.63
2017-10-23T00:48:12.328Z,88.58
2017-10-23T00:50:40.621Z,88.84
2017-10-23T00:53:09.702Z,88.94
2017-10-23T00:55:38.012Z,89.14
2017-10-23T00:58:06.317Z,89.19
2017-10-23T01:00:34.626Z,89.21
2017-10-23T01:03:02.942Z,89.17
2017-10-23T01:05:31.245Z,89.32
2017-10-23T01:07:59.561Z,89.59
2017-10-23T01:10:27.916Z,89.51
2017-10-23T01:12:56.982Z,89.60
2017-10-23T01:15:25.273Z,89.78
2017-10-23T01:17:53.585Z,89.70
2017-10-23T01:20:21.897Z,89.96
2017-10-23T01:22:50.214Z,90.00
2017-10-23T01:25:18.579Z,90.22
2017-10-23T01:27:46.928Z,89.96
2017-10-23T01:30:15.227Z,90.20
2017-10-23T01:32:43.545Z,90.05
2017-10-23T01:35:11.856Z,90.38
2017-10-23T01:37:40.933Z,90.39
2017-10-23T01:40:09.264Z,90.23
2017-10-23T01:42:37.571Z,90.14
2017-10-23T01:45:05.886Z,90.36
2017-10-23T01:47:34.197Z,89.81
2017-10-23T01:50:02.505Z,89.94
2017-10-23T01:52:30.817Z,89.71
2017-10-23T01:54:59.942Z,89.79
2017-10-23T01:57:28.250Z,89.21
2017-10-23T01:59:56.586Z,88.16
2017-10-23T02:02:24.946Z,87.69
2017-10-23T02:04:53.264Z,87.08
2017-10-23T02:07:21.564Z,86.69
2017-10-23T02:09:49.895Z,86.30
2017-10-23T02:12:18.185Z,85.70
2017-10-23T02:14:46.486Z,85.61
2017-10-23T02:17:14.802Z,85.31
2017-10-23T02:19:43.878Z,85.06
2017-10-23T02:22:12.307Z,84.86
2017-10-23T02:24:40.617Z,84.62
2017-10-23T02:27:08.926Z,83.88
2017-10-23T02:29:38.021Z,83.61
2017-10-23T02:32:07.105Z,83.50
2017-10-23T02:34:35.421Z,83.32
2017-10-23T02:37:03.726Z,83.15
2017-10-23T02:39:32.046Z,82.93
2017-10-23T02:42:01.130Z,83.18
2017-10-23T02:44:29.461Z,82.92
2017-10-23T02:46:57.769Z,83.19
2017-10-23T02:49:26.093Z,83.11
2017-10-23T02:51:54.401Z,82.86
2017-10-23T02:54:22.724Z,82.85
2017-10-23T02:56:51.039Z,82.68
2017-10-23T02:59:19.362Z,82.72
2017-10-23T03:01:47.676Z,82.40
2017-10-23T03:04:16.771Z,82.18
2017-10-23T03:06:45.844Z,82.17
2017-10-23T03:09:14.176Z,82.41
2017-10-23T03:11:42.504Z,82.57
2017-10-23T03:14:11.654Z,83.03
2017-10-23T03:16:39.978Z,83.33
2017-10-23T03:19:09.104Z,83.67
2017-10-23T03:21:37.453Z,83.82
2017-10-23T03:24:06.543Z,83.46
2017-10-23T03:26:35.619Z,83.38
2017-10-23T03:29:03.946Z,83.11
2017-10-23T03:31:32.257Z,83.18
2017-10-23T03:34:00.591Z,83.45
2017-10-23T03:36:29.711Z,83.01
2017-10-23T03:38:58.028Z,82.86
2017-10-23T03:41:26.349Z,82.49
2017-10-23T03:43:54.689Z,82.42
2017-10-23T03:46:23.041Z,82.17
2017-10-23T03:48:51.414Z,82.21
2017-10-23T03:51:19.730Z,82.30
2017-10-23T03:53:48.050Z,81.95
2017-10-23T03:56:16.365Z,81.85
2017-10-23T03:58:44.704Z,82.01
2017-10-23T04:01:13.017Z,81.91
2017-10-23T04:03:41.343Z,81.58
2017-10-23T04:06:10.462Z,81.55
2017-10-23T04:08:38.840Z,81.72
2017-10-23T04:11:07.159Z,81.89
2017-10-23T04:13:35.470Z,81.59
2017-10-23T04:16:03.777Z,81.61
2017-10-23T04:18:32.089Z,81.80
2017-10-23T04:21:00.393Z,81.77
2017-10-23T04:23:29.473Z,81.71
2017-10-23T04:25:57.777Z,81.79
2017-10-23T04:28:26.850Z,81.97
2017-10-23T04:30:55.934Z,81.91
2017-10-23T04:33:24.254Z,81.64
2017-10-23T04:35:52.573Z,81.45
2017-10-23T04:38:20.872Z,81.01
2017-10-23T04:40:49.191Z,81.03
2017-10-23T04:43:17.527Z,80.99
2017-10-23T04:45:45.837Z,81.28
2017-10-23T04:48:14.177Z,81.22
2017-10-23T04:50:42.476Z,80.92
2017-10-23T04:53:11.550Z,81.95
2017-10-23T04:55:39.862Z,81.45
2017-10-23T04:58:08.167Z,80.89
2017-10-23T05:00:36.478Z,80.41
2017-10-23T05:03:04.771Z,79.89
2017-10-23T05:05:33.855Z,79.51
2017-10-23T05:08:02.153Z,79.02
2017-10-23T05:10:31.226Z,78.79
2017-10-23T05:12:59.517Z,79.12
2017-10-23T05:15:28.593Z,78.67
2017-10-23T05:17:56.897Z,79.63
2017-10-23T05:20:25.970Z,80.13
2017-10-23T05:22:54.266Z,80.00
2017-10-23T05:25:23.341Z,79.93
2017-10-23T05:27:51.643Z,80.63
2017-10-23T05:30:20.736Z,80.38
2017-10-23T05:32:49.803Z,80.29
2017-10-23T05:35:18.131Z,80.39
2017-10-23T05:37:46.429Z,80.21
2017-10-23T05:40:14.729Z,79.97
2017-10-23T05:42:43.022Z,80.08
2017-10-23T05:45:11.334Z,79.97
2017-10-23T05:47:39.629Z,80.06
2017-10-23T05:50:07.937Z,79.99
2017-10-23T05:52:36.228Z,80.60
2017-10-23T05:55:04.541Z,80.82
2017-10-23T05:57:32.841Z,81.02
2017-10-23T06:00:01.146Z,81.08
2017-10-23T06:02:29.437Z,81.23
2017-10-23T06:04:59.258Z,81.88
2017-10-23T06:07:28.326Z,82.53
2017-10-23T06:09:56.629Z,83.02
2017-10-23T06:12:25.718Z,83.20
2017-10-23T06:14:54.021Z,83.66
2017-10-23T06:17:22.329Z,83.61
2017-10-23T06:19:50.641Z,84.10
2017-10-23T06:22:18.953Z,84.55
2017-10-23T06:24:48.010Z,84.40
2017-10-23T06:27:16.334Z,84.00
2017-10-23T06:29:44.641Z,83.70
2017-10-23T06:32:12.966Z,83.77
2017-10-23T06:34:42.029Z,83.84
2017-10-23T06:37:11.242Z,84.69
2017-10-23T06:39:39.547Z,84.60
2017-10-23T06:42:08.622Z,84.47
2017-10-23T06:44:37.686Z,84.89
2017-10-23T06:47:05.998Z,85.89
2017-10-23T06:49:35.060Z,86.39
2017-10-23T06:52:03.366Z,86.46
2017-10-23T06:54:31.666Z,86.24
2017-10-23T06:57:00.731Z,86.17
2017-10-23T06:59:29.029Z,86.62
2017-10-23T07:01:58.101Z,85.61
2017-10-23T07:04:26.408Z,85.83
2017-10-23T07:06:54.717Z,85.33
2017-10-23T07:09:23.014Z,85.14
2017-10-23T07:11:51.313Z,84.81
2017-10-23T07:14:19.608Z,85.15
2017-10-23T07:16:48.687Z,85.18
2017-10-23T07:19:17.010Z,85.35
2017-10-23T07:21:45.317Z,84.60
2017-10-23T07:24:13.614Z,83.65
2017-10-23T07:26:41.928Z,83.47
2017-10-23T07:29:10.225Z,83.98
2017-10-23T07:31:38.529Z,84.05
2017-10-23T07:34:06.824Z,84.30
2017-10-23T07:36:35.125Z,85.18
2017-10-23T07:39:04.198Z,84.96
2017-10-23T07:41:32.513Z,85.60
2017-10-23T07:44:00.817Z,85.92
2017-10-23T07:46:29.891Z,86.23
2017-10-23T07:48:58.181Z,86.28
2017-10-23T07:51:26.485Z,86.90
2017-10-23T07:53:54.781Z,87.61
2017-10-23T07:56:23.881Z,87.63
2017-10-23T07:58:52.173Z,87.17
2017-10-23T08:01:20.486Z,88.38
2017-10-23T08:03:49.595Z,88.17
2017-10-23T08:06:17.915Z,87.27
2017-10-23T08:08:46.989Z,87.33
2017-10-23T08:11:15.289Z,87.03
2017-10-23T08:13:44.376Z,86.47
2017-10-23T08:16:13.453Z,86.86
2017-10-23T08:18:41.779Z,87.24
2017-10-23T08:21:10.077Z,88.07
2017-10-23T08:23:38.386Z,88.41
2017-10-23T08:26:06.716Z,87.54
2017-10-23T08:28:35.026Z,86.50
2017-10-23T08:31:03.335Z,86.57
2017-10-23T08:33:31.647Z,86.65
2017-10-23T08:35:59.952Z,86.86
2017-10-23T08:38:28.261Z,86.53
2017-10-23T08:40:56.570Z,86.04
2017-10-23T08:43:24.926Z,85.45
2017-10-23T08:45:53.993Z,84.96
2017-10-23T08:48:22.305Z,84.20
2017-10-23T08:50:51.385Z,81.99
2017-10-23T08:53:19.698Z,81.45
2017-10-23T08:55:47.997Z,80.08
2017-10-23T08:58:16.308Z,77.99
2017-10-23T09:00:44.610Z,74.17
2017-10-23T09:03:13.685Z,77.82
2017-10-23T09:05:41.991Z,79.00
2017-10-23T09:08:10.306Z,79.27
2017-10-23T09:10:38.621Z,77.85
2017-10-23T09:13:06.938Z,76.62
2017-10-23T09:15:35.256Z,77.11
2017-10-23T09:18:03.587Z,77.88
2017-10-23T09:20:31.891Z,77.57
2017-10-23T09:23:00.209Z,77.33
2017-10-23T09:25:28.521Z,78.42
2017-10-23T09:27:57.096Z,77.98
2017-10-23T09:30:25.405Z,78.17
2017-10-23T09:32:53.753Z,80.14
2017-10-23T09:35:22.066Z,79.02
2017-10-23T09:37:50.381Z,79.56
2017-10-23T09:40:19.448Z,79.23
2017-10-23T09:42:47.773Z,79.51
2017-10-23T09:45:16.851Z,80.29
2017-10-23T09:47:45.941Z,79.70
2017-10-23T09:50:14.253Z,79.35
2017-10-23T09:52:42.562Z,79.70
2017-10-23T09:55:10.869Z,80.07
2017-10-23T09:57:39.180Z,79.56
2017-10-23T10:00:07.486Z,80.21
2017-10-23T10:02:35.797Z,79.55
2017-10-23T10:05:05.609Z,79.42
2017-10-23T10:07:33.926Z,80.04
2017-10-23T10:10:02.232Z,78.73
2017-10-23T10:12:30.541Z,78.59
2017-10-23T10:14:58.858Z,79.13
2017-10-23T10:17:27.167Z,78.39
2017-10-23T10:19:55.490Z,78.05
2017-10-23T10:22:24.574Z,77.31
2017-10-23T10:24:53.673Z,75.76
2017-10-23T10:27:22.001Z,75.54
2017-10-23T10:29:50.332Z,73.50
2017-10-23T10:32:19.397Z,71.80
2017-10-23T10:34:47.714Z,71.10
2017-10-23T10:37:16.781Z,70.79
2017-10-23T10:39:45.091Z,71.86
2017-10-23T10:42:13.398Z,71.94
2017-10-23T10:44:41.730Z,73.07
2017-10-23T10:47:10.792Z,71.94
2017-10-23T10:49:39.865Z,72.64
2017-10-23T10:52:08.157Z,71.72
2017-10-23T10:54:36.472Z,71.21
2017-10-23T10:57:05.542Z,71.90
2017-10-23T10:59:33.853Z,69.70
2017-10-23T11:02:02.917Z,70.55
2017-10-23T11:04:31.229Z,69.21
2017-10-23T11:07:00.290Z,69.11
2017-10-23T11:09:28.609Z,69.70
2017-10-23T11:11:58.482Z,70.31
2017-10-23T11:14:26.790Z,71.10
2017-10-23T11:16:55.853Z,70.76
2017-10-23T11:19:24.162Z,69.75
2017-10-23T11:21:52.466Z,70.82
2017-10-23T11:24:20.778Z,70.87
2017-10-23T11:26:49.085Z,70.63
2017-10-23T11:29:18.157Z,70.69
2017-10-23T11:31:46.461Z,71.46
2017-10-23T11:34:15.545Z,70.17
2017-10-23T11:36:43.846Z,70.95
2017-10-23T11:39:12.160Z,69.73
2017-10-23T11:41:40.459Z,69.34
2017-10-23T11:44:08.761Z,68.30
2017-10-23T11:46:37.830Z,67.33
2017-10-23T11:49:06.143Z,68.39
2017-10-23T11:51:34.450Z,69.15
2017-10-23T11:54:02.756Z,69.52
2017-10-23T11:56:31.058Z,69.67
2017-10-23T11:58:59.378Z,68.58
2017-10-23T12:01:27.670Z,68.13
2017-10-23T12:03:55.991Z,69.38
2017-10-23T12:06:25.061Z,68.90
2017-10-23T12:08:53.369Z,69.53
2017-10-23T12:11:22.436Z,68.62
2017-10-23T12:13:50.754Z,68.74
2017-10-23T12:16:19.827Z,67.85
2017-10-23T12:18:48.920Z,66.97
2017-10-23T12:21:18.007Z,67.22
2017-10-23T12:23:46.510Z,66.67
2017-10-23T12:26:15.582Z,66.37
2017-10-23T12:28:43.883Z,66.42
2017-10-23T12:31:12.990Z,66.72
2017-10-23T12:33:42.062Z,66.71
2017-10-23T12:36:10.375Z,66.88
2017-10-23T12:38:38.689Z,66.28
2017-10-23T12:41:07.002Z,66.46
2017-10-23T12:43:36.082Z,67.56
2017-10-23T12:46:04.401Z,67.43
2017-10-23T12:48:32.712Z,67.51
2017-10-23T12:51:01.060Z,67.13
2017-10-23T12:53:29.361Z,67.29
2017-10-23T12:55:57.689Z,68.16
2017-10-23T12:58:26.758Z,67.47
2017-10-23T13:00:55.064Z,67.76
2017-10-23T13:03:24.134Z,67.62
2017-10-23T13:05:52.442Z,67.22
2017-10-23T13:08:20.740Z,67.30
2017-10-23T13:10:49.054Z,66.54
2017-10-23T13:13:17.365Z,66.37
2017-10-23T13:15:46.447Z,66.74
2017-10-23T13:18:15.520Z,67.78
2017-10-23T13:20:43.829Z,66.95
2017-10-23T13:23:12.890Z,67.89
2017-10-23T13:25:41.222Z,67.63
2017-10-23T13:28:09.525Z,67.58
2017-10-23T13:30:37.853Z,67.02
2017-10-23T13:33:06.938Z,68.21
2017-10-23T13:35:35.247Z,67.14
2017-10-23T13:38:03.552Z,66.79
2017-10-23T13:40:31.861Z,67.23
2017-10-23T13:43:00.164Z,66.64
2017-10-23T13:45:29.237Z,67.88
2017-10-23T13:47:57.534Z,67.09
2017-10-23T13:50:27.015Z,67.07
2017-10-23T13:52:56.115Z,67.23
2017-10-23T13:55:25.213Z,66.24
2017-10-23T13:57:53.522Z,67.90
2017-10-23T14:00:21.858Z,68.22
2017-10-23T14:02:50.174Z,69.13
2017-10-23T14:05:18.498Z,69.51
2017-10-23T14:07:46.793Z,69.80
2017-10-23T14:10:15.106Z,69.69
2017-10-23T14:12:43.406Z,70.54
2017-10-23T14:15:11.725Z,70.24
2017-10-23T14:17:40.049Z,70.56
2017-10-23T14:20:08.376Z,70.49
2017-10-23T14:22:36.677Z,69.73
2017-10-23T14:25:04.982Z,69.37
2017-10-23T14:27:33.287Z,69.46
2017-10-23T14:32:58.886Z,69.60
2017-10-23T14:35:27.198Z,70.00
2017-10-23T14:37:55.504Z,69.40
2017-10-23T14:40:23.822Z,69.94
2017-10-23T14:42:52.146Z,70.36
2017-10-23T14:45:20.458Z,70.93
2017-10-23T14:47:49.538Z,71.48
2017-10-23T14:50:18.609Z,71.29
2017-10-23T14:52:46.920Z,71.61
2017-10-23T14:55:15.253Z,71.46
2017-10-23T14:57:43.591Z,71.87
2017-10-23T15:03:09.300Z,71.54
2017-10-23T15:05:38.376Z,71.76
2017-10-23T15:08:06.673Z,71.14
2017-10-23T15:10:34.985Z,71.44
2017-10-23T15:13:03.289Z,71.72
2017-10-23T15:15:31.590Z,71.97
2017-10-23T15:17:59.905Z,72.07
2017-10-23T15:20:28.214Z,72.30
2017-10-23T15:22:56.522Z,72.85
2017-10-23T15:25:24.816Z,72.72
2017-10-23T15:27:53.964Z,73.24
2017-10-23T15:30:22.282Z,73.35
2017-10-23T15:32:50.585Z,73.36
2017-10-23T15:35:18.908Z,73.08
2017-10-23T15:37:47.217Z,73.28
2017-10-23T15:40:15.521Z,73.21
2017-10-23T15:42:43.832Z,73.16
2017-10-23T15:45:12.131Z,73.26
2017-10-23T15:47:40.442Z,72.87
2017-10-23T15:50:09.506Z,73.68
2017-10-23T15:52:37.804Z,73.49
2017-10-23T15:55:06.869Z,73.33
2017-10-23T15:57:35.178Z,73.30
2017-10-23T16:00:03.488Z,73.24
2017-10-23T16:02:31.805Z,73.66
2017-10-23T16:05:00.104Z,74.37
2017-10-23T16:07:29.185Z,74.67
2017-10-23T16:09:57.496Z,75.36
2017-10-23T16:12:25.809Z,75.27
2017-10-23T16:14:54.110Z,76.30
2017-10-23T16:17:22.421Z,77.12
2017-10-23T16:19:51.481Z,77.22
2017-10-23T16:22:19.822Z,77.45
2017-10-23T16:24:48.113Z,78.38
2017-10-23T16:27:16.416Z,77.95
2017-10-23T16:29:44.718Z,79.17
2017-10-23T16:32:13.812Z,80.28
2017-10-23T16:34:42.880Z,80.40
2017-10-23T16:37:11.188Z,80.61
2017-10-23T16:39:40.245Z,81.74
2017-10-23T16:42:08.553Z,82.54
2017-10-23T16:44:37.614Z,83.60
2017-10-23T16:47:05.931Z,84.32
2017-10-23T16:49:34.988Z,85.27
2017-10-23T16:52:03.298Z,85.84
2017-10-23T16:54:32.372Z,86.05
2017-10-23T16:57:00.686Z,86.33
2017-10-23T16:59:28.984Z,86.71
2017-10-23T17:01:57.293Z,87.05
2017-10-23T17:04:25.605Z,86.93
2017-10-23T17:06:54.681Z,86.73
2017-10-23T17:09:22.989Z,87.11
2017-10-23T17:11:51.320Z,86.86
2017-10-23T17:14:19.625Z,87.72
2017-10-23T17:16:48.700Z,87.86
2017-10-23T17:19:17.002Z,88.38
2017-10-23T17:21:46.081Z,88.08
2017-10-23T17:24:15.154Z,88.27
2017-10-23T17:26:43.477Z,88.26
2017-10-23T17:29:11.785Z,88.37
2017-10-23T17:31:40.076Z,87.63
2017-10-23T17:34:08.389Z,87.57
2017-10-23T17:36:36.701Z,87.69
2017-10-23T17:39:05.034Z,88.32
2017-10-23T17:41:33.342Z,88.95
2017-10-23T17:44:01.678Z,89.36
2017-10-23T17:46:30.011Z,89.68
2017-10-23T17:48:58.325Z,88.64
2017-10-23T17:51:26.634Z,89.01
2017-10-23T17:53:54.955Z,89.70
2017-10-23T17:56:23.741Z,89.04
2017-10-23T17:58:52.058Z,89.76
2017-10-23T18:01:20.381Z,89.05
2017-10-23T18:03:48.725Z,89.14
2017-10-23T18:06:17.053Z,88.87
2017-10-23T18:08:45.371Z,88.60
2017-10-23T18:11:13.681Z,87.89
2017-10-23T18:13:42.100Z,88.47
2017-10-23T18:16:10.413Z,88.02
2017-10-23T18:18:38.725Z,87.95
2017-10-23T18:21:07.026Z,87.87
2017-10-23T18:23:35.347Z,88.63
2017-10-23T18:26:03.653Z,88.72
2017-10-23T18:28:31.962Z,88.47
2017-10-23T18:31:00.263Z,88.70
2017-10-23T18:33:28.597Z,88.79
2017-10-23T18:35:56.897Z,89.03
2017-10-23T18:38:25.216Z,88.71
2017-10-23T18:40:53.542Z,88.61
2017-10-23T18:43:21.857Z,88.72
2017-10-23T18:45:50.356Z,88.84
2017-10-23T18:48:19.476Z,88.99
2017-10-23T18:50:47.797Z,88.57
2017-10-23T18:53:16.119Z,89.12
2017-10-23T18:55:45.223Z,88.92
2017-10-23T18:58:13.552Z,88.79
2017-10-23T19:00:41.871Z,88.98
2017-10-23T19:03:10.937Z,88.94
2017-10-23T19:05:39.253Z,89.14
2017-10-23T19:08:07.557Z,89.63
2017-10-23T19:10:35.937Z,89.40
2017-10-23T19:13:04.242Z,89.84
2017-10-23T19:15:32.589Z,90.52
2017-10-23T19:18:00.917Z,90.26
2017-10-23T19:20:30.012Z,90.47
2017-10-23T19:22:59.082Z,90.49
2017-10-23T19:25:27.394Z,90.55
2017-10-23T19:27:56.518Z,90.90
2017-10-23T19:30:24.831Z,90.58
2017-10-23T19:32:53.144Z,90.52
2017-10-23T19:35:22.221Z,90.51
2017-10-23T19:37:50.577Z,90.89
2017-10-23T19:40:18.898Z,91.26
2017-10-23T19:42:47.969Z,91.81
2017-10-23T19:45:16.313Z,91.40
2017-10-23T19:47:44.631Z,91.31
2017-10-23T19:50:12.958Z,91.68
2017-10-23T19:52:41.255Z,91.37
2017-10-23T19:55:09.595Z,91.21
2017-10-23T19:57:37.916Z,91.23
2017-10-23T20:00:06.237Z,91.25
2017-10-23T20:02:35.311Z,91.49
2017-10-23T20:05:03.626Z,91.80
2017-10-23T20:07:31.934Z,92.02
2017-10-23T20:10:00.258Z,91.99
2017-10-23T20:12:29.334Z,91.70
2017-10-23T20:14:57.654Z,91.64
2017-10-23T20:17:25.961Z,91.53
2017-10-23T20:19:54.286Z,91.69
2017-10-23T20:22:23.358Z,92.34
2017-10-23T20:24:51.672Z,92.11
2017-10-23T20:27:19.968Z,92.16
2017-10-23T20:29:48.285Z,92.29
2017-10-23T20:32:16.595Z,91.79
2017-10-23T20:34:44.930Z,91.94
2017-10-23T20:37:13.249Z,91.82
2017-10-23T20:39:42.379Z,91.43
2017-10-23T20:42:10.694Z,91.61
2017-10-23T20:44:39.006Z,91.47
2017-10-23T20:47:07.329Z,91.40
2017-10-23T20:49:35.639Z,91.40
2017-10-23T20:52:04.778Z,91.18
2017-10-23T20:54:33.094Z,91.12
2017-10-23T20:57:01.401Z,90.65
2017-10-23T20:59:30.466Z,90.78
2017-10-23T21:01:59.553Z,90.93
2017-10-23T21:04:28.630Z,91.56
2017-10-23T21:06:56.949Z,91.29
2017-10-23T21:09:25.682Z,91.41
2017-10-23T21:11:53.998Z,91.30
2017-10-23T21:14:22.308Z,91.51
2017-10-23T21:16:51.393Z,91.56
2017-10-23T21:19:20.462Z,91.63
2017-10-23T21:21:48.776Z,91.81
2017-10-23T21:24:17.850Z,92.30
2017-10-23T21:26:46.194Z,91.77
2017-10-23T21:29:14.508Z,91.73
2017-10-23T21:31:42.825Z,91.55
2017-10-23T21:34:11.142Z,91.46
2017-10-23T21:36:39.464Z,91.36
2017-10-23T21:39:08.538Z,91.32
2017-10-23T21:41:37.628Z,91.46
2017-10-23T21:44:05.951Z,91.14
2017-10-23T21:46:51.774Z,91.07
2017-10-23T21:49:20.095Z,90.96
2017-10-23T21:51:49.174Z,91.14
2017-10-23T21:54:17.482Z,90.99
2017-10-23T21:56:45.802Z,91.07
2017-10-23T21:59:14.113Z,90.80
2017-10-23T22:01:43.205Z,90.94
2017-10-23T22:04:12.295Z,91.06
2017-10-23T22:06:40.618Z,90.82
2017-10-23T22:09:08.922Z,90.66
2017-10-23T22:11:37.240Z,90.16
2017-10-23T22:14:06.330Z,90.11
2017-10-23T22:16:35.405Z,89.96
2017-10-23T22:19:03.721Z,90.10
2017-10-23T22:21:32.036Z,90.12
2017-10-23T22:24:00.361Z,90.50
2017-10-23T22:26:29.431Z,90.72
2017-10-23T22:28:57.773Z,90.47
2017-10-23T22:31:26.138Z,90.75
2017-10-23T22:33:54.459Z,90.63
2017-10-23T22:36:22.765Z,90.63
2017-10-23T22:38:51.853Z,91.03
2017-10-23T22:41:20.149Z,90.90
2017-10-23T22:43:49.225Z,90.71
2017-10-23T22:46:18.304Z,90.72
2017-10-23T22:48:46.629Z,90.65
2017-10-23T22:51:14.938Z,90.67
2017-10-23T22:53:43.254Z,90.89
2017-10-23T22:56:12.390Z,91.08
2017-10-23T22:58:40.710Z,91.55
2017-10-23T23:01:09.021Z,92.41
2017-10-23T23:03:38.104Z,92.25
2017-10-23T23:06:07.182Z,92.10
2017-10-23T23:08:35.510Z,91.99
2017-10-23T23:11:03.821Z,92.19
2017-10-23T23:13:32.142Z,92.06
2017-10-23T23:16:01.204Z,92.23
2017-10-23T23:18:29.516Z,91.70
2017-10-23T23:20:58.591Z,91.69
2017-10-23T23:23:27.680Z,91.67
2017-10-23T23:25:56.770Z,91.83
2017-10-23T23:28:25.098Z,91.44
2017-10-23T23:30:53.407Z,91.58
2017-10-23T23:33:21.717Z,91.95
2017-10-23T23:35:50.781Z,92.09
2017-10-23T23:38:19.109Z,92.24
2017-10-23T23:40:47.434Z,92.35
2017-10-23T23:43:15.759Z,92.32
2017-10-23T23:45:44.830Z,92.51
2017-10-23T23:48:13.162Z,92.65
2017-10-23T23:50:41.539Z,92.52
2017-10-23T23:53:09.845Z,92.49
2017-10-23T23:55:38.155Z,93.00
2017-10-23T23:58:07.867Z,92.88
